sensor_id;sensor_type;location;lat;lon;timestamp;P1;durP1;ratioP1;P2;durP2;ratioP2
77226;SDS011;66234;47.642;19.144;2023-02-25T00:01:02;22.63;;;11.50;;
77226;SDS011;66234;47.642;19.144;2023-02-25T00:04:08;26.73;;;12.05;;
77226;SDS011;66234;47.642;19.144;2023-02-25T00:07:10;24.50;;;11.70;;
77226;SDS011;66234;47.642;19.144;2023-02-25T00:10:13;30.25;;;12.82;;
77226;SDS011;66234;47.642;19.144;2023-02-25T00:13:16;21.47;;;11.23;;
77226;SDS011;66234;47.642;19.144;2023-02-25T00:16:20;25.75;;;12.60;;
77226;SDS011;66234;47.642;19.144;2023-02-25T00:19:24;28.48;;;13.05;;
77226;SDS011;66234;47.642;19.144;2023-02-25T00:22:28;26.13;;;12.55;;
77226;SDS011;66234;47.642;19.144;2023-02-25T00:25:30;32.20;;;14.52;;
77226;SDS011;66234;47.642;19.144;2023-02-25T00:28:33;24.90;;;12.23;;
77226;SDS011;66234;47.642;19.144;2023-02-25T00:31:37;29.10;;;12.15;;
77226;SDS011;66234;47.642;19.144;2023-02-25T00:34:39;25.25;;;12.07;;
77226;SDS011;66234;47.642;19.144;2023-02-25T00:37:43;26.30;;;11.95;;
77226;SDS011;66234;47.642;19.144;2023-02-25T00:40:46;26.73;;;12.18;;
77226;SDS011;66234;47.642;19.144;2023-02-25T00:43:50;32.00;;;12.77;;
77226;SDS011;66234;47.642;19.144;2023-02-25T00:46:57;25.00;;;11.45;;
77226;SDS011;66234;47.642;19.144;2023-02-25T00:49:59;34.33;;;13.45;;
77226;SDS011;66234;47.642;19.144;2023-02-25T00:53:02;29.23;;;13.95;;
77226;SDS011;66234;47.642;19.144;2023-02-25T00:56:05;26.20;;;12.45;;
77226;SDS011;66234;47.642;19.144;2023-02-25T00:59:09;31.77;;;13.70;;
77226;SDS011;66234;47.642;19.144;2023-02-25T01:02:12;31.42;;;12.18;;
77226;SDS011;66234;47.642;19.144;2023-02-25T01:05:16;28.73;;;14.15;;
77226;SDS011;66234;47.642;19.144;2023-02-25T01:08:19;29.60;;;13.45;;
77226;SDS011;66234;47.642;19.144;2023-02-25T01:11:23;27.95;;;12.70;;
77226;SDS011;66234;47.642;19.144;2023-02-25T01:14:30;24.57;;;12.77;;
77226;SDS011;66234;47.642;19.144;2023-02-25T01:17:33;31.50;;;13.10;;
77226;SDS011;66234;47.642;19.144;2023-02-25T01:20:37;25.92;;;12.63;;
77226;SDS011;66234;47.642;19.144;2023-02-25T01:23:40;28.52;;;12.43;;
77226;SDS011;66234;47.642;19.144;2023-02-25T01:26:43;27.48;;;12.95;;
77226;SDS011;66234;47.642;19.144;2023-02-25T01:29:47;28.10;;;12.07;;
77226;SDS011;66234;47.642;19.144;2023-02-25T01:32:50;24.33;;;11.98;;
77226;SDS011;66234;47.642;19.144;2023-02-25T01:35:52;24.38;;;11.90;;
77226;SDS011;66234;47.642;19.144;2023-02-25T01:38:55;28.85;;;12.50;;
77226;SDS011;66234;47.642;19.144;2023-02-25T01:42:00;28.48;;;11.82;;
77226;SDS011;66234;47.642;19.144;2023-02-25T01:48:21;28.30;;;11.55;;
77226;SDS011;66234;47.642;19.144;2023-02-25T01:51:26;27.40;;;11.77;;
77226;SDS011;66234;47.642;19.144;2023-02-25T01:54:29;24.45;;;12.70;;
77226;SDS011;66234;47.642;19.144;2023-02-25T01:57:34;25.98;;;11.90;;
77226;SDS011;66234;47.642;19.144;2023-02-25T02:00:38;29.27;;;11.97;;
77226;SDS011;66234;47.642;19.144;2023-02-25T02:03:41;30.60;;;11.95;;
77226;SDS011;66234;47.642;19.144;2023-02-25T02:06:45;31.67;;;13.13;;
77226;SDS011;66234;47.642;19.144;2023-02-25T02:09:50;29.10;;;12.13;;
77226;SDS011;66234;47.642;19.144;2023-02-25T02:12:59;29.75;;;12.65;;
77226;SDS011;66234;47.642;19.144;2023-02-25T02:22:53;26.92;;;12.32;;
77226;SDS011;66234;47.642;19.144;2023-02-25T02:33:24;24.63;;;11.27;;
77226;SDS011;66234;47.642;19.144;2023-02-25T02:46:47;25.27;;;12.48;;
77226;SDS011;66234;47.642;19.144;2023-02-25T02:50:05;21.57;;;11.00;;
77226;SDS011;66234;47.642;19.144;2023-02-25T02:53:19;20.50;;;10.80;;
77226;SDS011;66234;47.642;19.144;2023-02-25T02:56:28;26.48;;;11.50;;
77226;SDS011;66234;47.642;19.144;2023-02-25T02:59:36;23.58;;;11.25;;
77226;SDS011;66234;47.642;19.144;2023-02-25T03:02:52;24.95;;;10.93;;
77226;SDS011;66234;47.642;19.144;2023-02-25T03:06:10;22.80;;;10.87;;
77226;SDS011;66234;47.642;19.144;2023-02-25T03:09:18;25.02;;;11.57;;
77226;SDS011;66234;47.642;19.144;2023-02-25T03:12:25;22.42;;;10.32;;
77226;SDS011;66234;47.642;19.144;2023-02-25T03:15:28;22.73;;;10.30;;
77226;SDS011;66234;47.642;19.144;2023-02-25T03:21:38;22.27;;;9.63;;
77226;SDS011;66234;47.642;19.144;2023-02-25T03:27:53;15.35;;;7.93;;
77226;SDS011;66234;47.642;19.144;2023-02-25T03:31:34;19.70;;;9.23;;
77226;SDS011;66234;47.642;19.144;2023-02-25T03:34:58;20.75;;;9.00;;
77226;SDS011;66234;47.642;19.144;2023-02-25T03:38:07;18.67;;;8.43;;
77226;SDS011;66234;47.642;19.144;2023-02-25T03:41:12;21.95;;;7.60;;
77226;SDS011;66234;47.642;19.144;2023-02-25T03:44:18;16.70;;;8.02;;
77226;SDS011;66234;47.642;19.144;2023-02-25T03:47:24;22.52;;;9.40;;
77226;SDS011;66234;47.642;19.144;2023-02-25T03:50:32;18.38;;;8.07;;
77226;SDS011;66234;47.642;19.144;2023-02-25T03:53:41;16.73;;;7.73;;
77226;SDS011;66234;47.642;19.144;2023-02-25T03:56:52;21.15;;;8.43;;
77226;SDS011;66234;47.642;19.144;2023-02-25T03:59:55;19.40;;;9.18;;
77226;SDS011;66234;47.642;19.144;2023-02-25T04:02:59;20.10;;;8.65;;
77226;SDS011;66234;47.642;19.144;2023-02-25T04:06:02;19.23;;;7.88;;
77226;SDS011;66234;47.642;19.144;2023-02-25T04:09:05;19.23;;;8.93;;
77226;SDS011;66234;47.642;19.144;2023-02-25T04:12:08;23.05;;;8.82;;
77226;SDS011;66234;47.642;19.144;2023-02-25T04:15:11;17.70;;;10.05;;
77226;SDS011;66234;47.642;19.144;2023-02-25T04:18:15;17.40;;;8.57;;
77226;SDS011;66234;47.642;19.144;2023-02-25T04:24:32;19.17;;;8.80;;
77226;SDS011;66234;47.642;19.144;2023-02-25T04:27:35;21.50;;;9.57;;
77226;SDS011;66234;47.642;19.144;2023-02-25T04:30:37;16.92;;;9.18;;
77226;SDS011;66234;47.642;19.144;2023-02-25T04:33:40;19.70;;;7.82;;
77226;SDS011;66234;47.642;19.144;2023-02-25T04:36:43;21.88;;;8.70;;
77226;SDS011;66234;47.642;19.144;2023-02-25T04:39:46;13.33;;;6.63;;
77226;SDS011;66234;47.642;19.144;2023-02-25T04:42:49;15.75;;;5.95;;
77226;SDS011;66234;47.642;19.144;2023-02-25T04:45:53;11.50;;;4.55;;
77226;SDS011;66234;47.642;19.144;2023-02-25T04:48:56;13.82;;;4.50;;
77226;SDS011;66234;47.642;19.144;2023-02-25T04:51:58;7.32;;;3.67;;
77226;SDS011;66234;47.642;19.144;2023-02-25T04:55:01;7.77;;;3.17;;
77226;SDS011;66234;47.642;19.144;2023-02-25T04:58:04;5.95;;;2.55;;
77226;SDS011;66234;47.642;19.144;2023-02-25T05:01:07;3.03;;;1.50;;
77226;SDS011;66234;47.642;19.144;2023-02-25T05:04:10;4.00;;;1.73;;
77226;SDS011;66234;47.642;19.144;2023-02-25T05:07:12;6.03;;;2.33;;
77226;SDS011;66234;47.642;19.144;2023-02-25T05:10:15;5.77;;;2.23;;
77226;SDS011;66234;47.642;19.144;2023-02-25T05:13:18;4.75;;;2.30;;
77226;SDS011;66234;47.642;19.144;2023-02-25T05:16:21;4.85;;;2.00;;
77226;SDS011;66234;47.642;19.144;2023-02-25T05:19:24;4.25;;;1.63;;
77226;SDS011;66234;47.642;19.144;2023-02-25T05:22:27;6.15;;;1.83;;
77226;SDS011;66234;47.642;19.144;2023-02-25T05:25:29;3.90;;;1.70;;
77226;SDS011;66234;47.642;19.144;2023-02-25T05:28:35;3.25;;;0.85;;
77226;SDS011;66234;47.642;19.144;2023-02-25T05:31:38;3.63;;;1.95;;
77226;SDS011;66234;47.642;19.144;2023-02-25T05:34:41;3.97;;;1.00;;
77226;SDS011;66234;47.642;19.144;2023-02-25T05:37:44;2.40;;;1.10;;
77226;SDS011;66234;47.642;19.144;2023-02-25T05:40:47;3.37;;;1.00;;
77226;SDS011;66234;47.642;19.144;2023-02-25T05:43:49;3.42;;;0.80;;
77226;SDS011;66234;47.642;19.144;2023-02-25T05:46:52;3.40;;;0.95;;
77226;SDS011;66234;47.642;19.144;2023-02-25T05:49:54;2.72;;;0.75;;
77226;SDS011;66234;47.642;19.144;2023-02-25T05:52:57;2.00;;;0.77;;
77226;SDS011;66234;47.642;19.144;2023-02-25T05:56:02;0.87;;;0.33;;
77226;SDS011;66234;47.642;19.144;2023-02-25T05:59:08;1.45;;;0.30;;
77226;SDS011;66234;47.642;19.144;2023-02-25T06:02:12;1.35;;;0.30;;
77226;SDS011;66234;47.642;19.144;2023-02-25T06:05:14;1.77;;;0.40;;
77226;SDS011;66234;47.642;19.144;2023-02-25T06:08:17;1.15;;;0.20;;
77226;SDS011;66234;47.642;19.144;2023-02-25T06:11:25;1.33;;;0.30;;
77226;SDS011;66234;47.642;19.144;2023-02-25T06:14:30;2.38;;;0.70;;
77226;SDS011;66234;47.642;19.144;2023-02-25T06:17:32;1.73;;;0.30;;
77226;SDS011;66234;47.642;19.144;2023-02-25T06:20:35;2.60;;;0.43;;
77226;SDS011;66234;47.642;19.144;2023-02-25T06:23:38;1.02;;;0.30;;
77226;SDS011;66234;47.642;19.144;2023-02-25T06:26:42;1.13;;;0.30;;
77226;SDS011;66234;47.642;19.144;2023-02-25T06:29:46;1.63;;;0.30;;
77226;SDS011;66234;47.642;19.144;2023-02-25T06:32:49;1.33;;;0.50;;
77226;SDS011;66234;47.642;19.144;2023-02-25T06:35:52;1.05;;;0.45;;
77226;SDS011;66234;47.642;19.144;2023-02-25T06:38:55;1.02;;;0.30;;
77226;SDS011;66234;47.642;19.144;2023-02-25T06:41:58;1.30;;;0.50;;
77226;SDS011;66234;47.642;19.144;2023-02-25T06:45:01;0.60;;;0.20;;
77226;SDS011;66234;47.642;19.144;2023-02-25T06:48:04;0.88;;;0.50;;
77226;SDS011;66234;47.642;19.144;2023-02-25T06:51:08;1.02;;;0.45;;
77226;SDS011;66234;47.642;19.144;2023-02-25T06:54:11;1.10;;;0.50;;
77226;SDS011;66234;47.642;19.144;2023-02-25T06:57:14;1.30;;;0.33;;
77226;SDS011;66234;47.642;19.144;2023-02-25T07:00:17;0.77;;;0.22;;
77226;SDS011;66234;47.642;19.144;2023-02-25T07:03:19;2.45;;;0.35;;
77226;SDS011;66234;47.642;19.144;2023-02-25T07:06:22;1.00;;;0.50;;
77226;SDS011;66234;47.642;19.144;2023-02-25T07:09:25;1.25;;;0.68;;
77226;SDS011;66234;47.642;19.144;2023-02-25T07:12:28;2.40;;;0.40;;
77226;SDS011;66234;47.642;19.144;2023-02-25T07:15:32;1.75;;;0.60;;
77226;SDS011;66234;47.642;19.144;2023-02-25T07:18:35;2.25;;;0.73;;
77226;SDS011;66234;47.642;19.144;2023-02-25T07:21:37;2.05;;;0.68;;
77226;SDS011;66234;47.642;19.144;2023-02-25T07:24:41;1.38;;;0.68;;
77226;SDS011;66234;47.642;19.144;2023-02-25T07:27:44;1.90;;;0.93;;
77226;SDS011;66234;47.642;19.144;2023-02-25T07:30:47;1.73;;;0.88;;
77226;SDS011;66234;47.642;19.144;2023-02-25T07:33:50;2.55;;;0.98;;
77226;SDS011;66234;47.642;19.144;2023-02-25T07:36:54;1.38;;;0.40;;
77226;SDS011;66234;47.642;19.144;2023-02-25T07:39:56;1.10;;;0.60;;
77226;SDS011;66234;47.642;19.144;2023-02-25T07:43:01;0.97;;;0.50;;
77226;SDS011;66234;47.642;19.144;2023-02-25T07:46:04;0.90;;;0.35;;
77226;SDS011;66234;47.642;19.144;2023-02-25T07:49:08;1.00;;;0.63;;
77226;SDS011;66234;47.642;19.144;2023-02-25T07:52:11;2.00;;;0.65;;
77226;SDS011;66234;47.642;19.144;2023-02-25T07:55:14;1.20;;;0.70;;
77226;SDS011;66234;47.642;19.144;2023-02-25T07:58:16;1.50;;;0.70;;
77226;SDS011;66234;47.642;19.144;2023-02-25T08:01:23;3.45;;;0.90;;
77226;SDS011;66234;47.642;19.144;2023-02-25T08:04:32;0.80;;;0.60;;
77226;SDS011;66234;47.642;19.144;2023-02-25T08:07:34;4.07;;;1.15;;
77226;SDS011;66234;47.642;19.144;2023-02-25T08:10:44;1.67;;;0.70;;
77226;SDS011;66234;47.642;19.144;2023-02-25T08:13:47;2.60;;;0.80;;
77226;SDS011;66234;47.642;19.144;2023-02-25T08:16:54;2.28;;;0.70;;
77226;SDS011;66234;47.642;19.144;2023-02-25T08:19:57;2.22;;;0.68;;
77226;SDS011;66234;47.642;19.144;2023-02-25T08:23:00;1.38;;;0.73;;
77226;SDS011;66234;47.642;19.144;2023-02-25T08:26:02;3.05;;;0.98;;
77226;SDS011;66234;47.642;19.144;2023-02-25T08:29:05;3.57;;;1.20;;
77226;SDS011;66234;47.642;19.144;2023-02-25T08:32:08;2.72;;;0.80;;
77226;SDS011;66234;47.642;19.144;2023-02-25T08:35:11;2.75;;;0.82;;
77226;SDS011;66234;47.642;19.144;2023-02-25T08:38:15;1.20;;;0.68;;
77226;SDS011;66234;47.642;19.144;2023-02-25T08:41:19;1.40;;;0.82;;
77226;SDS011;66234;47.642;19.144;2023-02-25T08:44:23;2.47;;;1.33;;
77226;SDS011;66234;47.642;19.144;2023-02-25T08:47:31;1.80;;;0.43;;
77226;SDS011;66234;47.642;19.144;2023-02-25T08:50:34;1.08;;;0.65;;
77226;SDS011;66234;47.642;19.144;2023-02-25T08:53:39;1.45;;;0.68;;
77226;SDS011;66234;47.642;19.144;2023-02-25T08:56:42;1.30;;;0.70;;
77226;SDS011;66234;47.642;19.144;2023-02-25T08:59:48;2.10;;;0.70;;
77226;SDS011;66234;47.642;19.144;2023-02-25T09:02:51;1.52;;;0.63;;
77226;SDS011;66234;47.642;19.144;2023-02-25T09:05:54;1.02;;;0.60;;
77226;SDS011;66234;47.642;19.144;2023-02-25T09:08:57;1.83;;;0.80;;
77226;SDS011;66234;47.642;19.144;2023-02-25T09:12:00;1.38;;;0.70;;
77226;SDS011;66234;47.642;19.144;2023-02-25T09:15:06;1.30;;;0.60;;
77226;SDS011;66234;47.642;19.144;2023-02-25T09:18:10;1.85;;;0.73;;
77226;SDS011;66234;47.642;19.144;2023-02-25T09:21:13;2.28;;;0.70;;
77226;SDS011;66234;47.642;19.144;2023-02-25T09:24:16;1.30;;;0.50;;
77226;SDS011;66234;47.642;19.144;2023-02-25T09:27:18;1.38;;;0.65;;
77226;SDS011;66234;47.642;19.144;2023-02-25T09:30:21;1.50;;;0.70;;
77226;SDS011;66234;47.642;19.144;2023-02-25T09:33:24;1.08;;;0.60;;
77226;SDS011;66234;47.642;19.144;2023-02-25T09:36:28;0.90;;;0.80;;
77226;SDS011;66234;47.642;19.144;2023-02-25T09:39:30;0.90;;;0.30;;
77226;SDS011;66234;47.642;19.144;2023-02-25T09:46:10;0.73;;;0.40;;
77226;SDS011;66234;47.642;19.144;2023-02-25T09:49:23;1.45;;;0.73;;
77226;SDS011;66234;47.642;19.144;2023-02-25T09:52:34;2.10;;;0.73;;
77226;SDS011;66234;47.642;19.144;2023-02-25T09:55:42;0.25;;;0.25;;
77226;SDS011;66234;47.642;19.144;2023-02-25T09:58:49;0.90;;;0.47;;
77226;SDS011;66234;47.642;19.144;2023-02-25T10:01:58;0.50;;;0.20;;
77226;SDS011;66234;47.642;19.144;2023-02-25T10:08:29;1.40;;;0.60;;
77226;SDS011;66234;47.642;19.144;2023-02-25T10:11:37;5.20;;;0.80;;
77226;SDS011;66234;47.642;19.144;2023-02-25T10:18:19;1.30;;;0.50;;
77226;SDS011;66234;47.642;19.144;2023-02-25T10:25:12;0.80;;;0.52;;
77226;SDS011;66234;47.642;19.144;2023-02-25T10:28:25;0.63;;;0.30;;
77226;SDS011;66234;47.642;19.144;2023-02-25T10:31:31;0.85;;;0.45;;
77226;SDS011;66234;47.642;19.144;2023-02-25T10:34:35;1.40;;;0.63;;
77226;SDS011;66234;47.642;19.144;2023-02-25T10:37:40;0.82;;;0.60;;
77226;SDS011;66234;47.642;19.144;2023-02-25T10:40:43;1.00;;;0.45;;
77226;SDS011;66234;47.642;19.144;2023-02-25T10:43:45;0.73;;;0.47;;
77226;SDS011;66234;47.642;19.144;2023-02-25T10:47:02;0.68;;;0.50;;
77226;SDS011;66234;47.642;19.144;2023-02-25T10:50:41;1.27;;;0.60;;
77226;SDS011;66234;47.642;19.144;2023-02-25T10:56:59;0.93;;;0.68;;
77226;SDS011;66234;47.642;19.144;2023-02-25T11:00:22;1.58;;;0.40;;
77226;SDS011;66234;47.642;19.144;2023-02-25T11:03:29;0.55;;;0.30;;
77226;SDS011;66234;47.642;19.144;2023-02-25T11:06:35;0.50;;;0.30;;
77226;SDS011;66234;47.642;19.144;2023-02-25T11:09:40;0.45;;;0.10;;
77226;SDS011;66234;47.642;19.144;2023-02-25T11:12:47;0.45;;;0.20;;
77226;SDS011;66234;47.642;19.144;2023-02-25T11:16:10;0.30;;;0.13;;
77226;SDS011;66234;47.642;19.144;2023-02-25T11:19:16;0.60;;;0.32;;
77226;SDS011;66234;47.642;19.144;2023-02-25T11:22:36;1.23;;;0.00;;
77226;SDS011;66234;47.642;19.144;2023-02-25T11:25:44;0.20;;;0.00;;
77226;SDS011;66234;47.642;19.144;2023-02-25T11:28:47;0.52;;;0.15;;
77226;SDS011;66234;47.642;19.144;2023-02-25T11:31:52;0.82;;;0.00;;
77226;SDS011;66234;47.642;19.144;2023-02-25T11:35:04;0.40;;;0.30;;
77226;SDS011;66234;47.642;19.144;2023-02-25T11:38:14;1.37;;;0.00;;
77226;SDS011;66234;47.642;19.144;2023-02-25T11:41:29;0.77;;;0.10;;
77226;SDS011;66234;47.642;19.144;2023-02-25T11:44:42;0.85;;;0.05;;
77226;SDS011;66234;47.642;19.144;2023-02-25T11:47:46;0.22;;;0.10;;
77226;SDS011;66234;47.642;19.144;2023-02-25T11:57:44;10.20;;;3.38;;
77226;SDS011;66234;47.642;19.144;2023-02-25T12:01:20;0.70;;;0.25;;
77226;SDS011;66234;47.642;19.144;2023-02-25T12:25:39;0.15;;;0.08;;
77226;SDS011;66234;47.642;19.144;2023-02-25T12:29:00;1.17;;;0.17;;
77226;SDS011;66234;47.642;19.144;2023-02-25T12:32:48;0.50;;;0.10;;
77226;SDS011;66234;47.642;19.144;2023-02-25T12:36:19;2.22;;;0.20;;
77226;SDS011;66234;47.642;19.144;2023-02-25T12:49:49;0.17;;;0.00;;
77226;SDS011;66234;47.642;19.144;2023-02-25T12:59:49;2.58;;;0.40;;
77226;SDS011;66234;47.642;19.144;2023-02-25T13:03:23;2.07;;;0.10;;
77226;SDS011;66234;47.642;19.144;2023-02-25T13:10:04;8.38;;;0.52;;
77226;SDS011;66234;47.642;19.144;2023-02-25T13:16:50;0.90;;;0.00;;
77226;SDS011;66234;47.642;19.144;2023-02-25T13:23:34;0.30;;;0.10;;
77226;SDS011;66234;47.642;19.144;2023-02-25T13:30:34;1.65;;;0.25;;
77226;SDS011;66234;47.642;19.144;2023-02-25T13:44:31;1.33;;;0.20;;
77226;SDS011;66234;47.642;19.144;2023-02-25T14:04:06;0.63;;;0.40;;
77226;SDS011;66234;47.642;19.144;2023-02-25T14:20:47;0.25;;;0.17;;
77226;SDS011;66234;47.642;19.144;2023-02-25T14:23:58;0.43;;;0.00;;
77226;SDS011;66234;47.642;19.144;2023-02-25T14:27:47;0.30;;;0.00;;
77226;SDS011;66234;47.642;19.144;2023-02-25T14:34:14;0.85;;;0.10;;
77226;SDS011;66234;47.642;19.144;2023-02-25T14:37:40;1.30;;;0.10;;
77226;SDS011;66234;47.642;19.144;2023-02-25T14:44:13;0.60;;;0.20;;
77226;SDS011;66234;47.642;19.144;2023-02-25T14:47:25;0.88;;;0.20;;
77226;SDS011;66234;47.642;19.144;2023-02-25T14:50:38;0.60;;;0.25;;
77226;SDS011;66234;47.642;19.144;2023-02-25T15:04:21;1.33;;;0.30;;
77226;SDS011;66234;47.642;19.144;2023-02-25T15:07:44;1.73;;;0.30;;
77226;SDS011;66234;47.642;19.144;2023-02-25T15:22:10;0.70;;;0.20;;
77226;SDS011;66234;47.642;19.144;2023-02-25T15:31:31;2.58;;;0.82;;
77226;SDS011;66234;47.642;19.144;2023-02-25T15:34:36;3.13;;;0.90;;
77226;SDS011;66234;47.642;19.144;2023-02-25T15:38:01;2.47;;;0.30;;
77226;SDS011;66234;47.642;19.144;2023-02-25T15:41:29;0.28;;;0.10;;
77226;SDS011;66234;47.642;19.144;2023-02-25T15:44:42;0.52;;;0.10;;
77226;SDS011;66234;47.642;19.144;2023-02-25T15:47:47;0.50;;;0.10;;
77226;SDS011;66234;47.642;19.144;2023-02-25T15:50:50;0.30;;;0.10;;
77226;SDS011;66234;47.642;19.144;2023-02-25T15:53:54;0.55;;;0.30;;
77226;SDS011;66234;47.642;19.144;2023-02-25T15:56:58;3.75;;;0.20;;
77226;SDS011;66234;47.642;19.144;2023-02-25T16:00:02;0.73;;;0.40;;
77226;SDS011;66234;47.642;19.144;2023-02-25T16:03:23;0.98;;;0.17;;
77226;SDS011;66234;47.642;19.144;2023-02-25T16:06:40;1.07;;;0.10;;
77226;SDS011;66234;47.642;19.144;2023-02-25T16:10:06;1.27;;;0.28;;
77226;SDS011;66234;47.642;19.144;2023-02-25T16:13:29;1.63;;;0.32;;
77226;SDS011;66234;47.642;19.144;2023-02-25T16:16:34;2.28;;;0.20;;
77226;SDS011;66234;47.642;19.144;2023-02-25T16:19:41;1.60;;;0.45;;
77226;SDS011;66234;47.642;19.144;2023-02-25T16:22:47;1.27;;;0.27;;
77226;SDS011;66234;47.642;19.144;2023-02-25T16:35:59;1.17;;;0.45;;
77226;SDS011;66234;47.642;19.144;2023-02-25T16:39:23;0.43;;;0.20;;
77226;SDS011;66234;47.642;19.144;2023-02-25T16:42:31;0.65;;;0.05;;
77226;SDS011;66234;47.642;19.144;2023-02-25T16:45:36;2.28;;;0.28;;
77226;SDS011;66234;47.642;19.144;2023-02-25T16:48:46;0.38;;;0.20;;
77226;SDS011;66234;47.642;19.144;2023-02-25T16:51:51;2.20;;;0.10;;
77226;SDS011;66234;47.642;19.144;2023-02-25T16:54:56;0.87;;;0.40;;
77226;SDS011;66234;47.642;19.144;2023-02-25T16:58:02;1.77;;;0.50;;
77226;SDS011;66234;47.642;19.144;2023-02-25T17:01:10;1.85;;;0.50;;
77226;SDS011;66234;47.642;19.144;2023-02-25T17:07:36;1.48;;;0.32;;
77226;SDS011;66234;47.642;19.144;2023-02-25T17:10:46;1.17;;;0.20;;
77226;SDS011;66234;47.642;19.144;2023-02-25T17:13:52;2.47;;;1.00;;
77226;SDS011;66234;47.642;19.144;2023-02-25T17:16:57;4.43;;;1.27;;
77226;SDS011;66234;47.642;19.144;2023-02-25T17:20:05;2.97;;;0.95;;
77226;SDS011;66234;47.642;19.144;2023-02-25T17:23:12;5.03;;;2.25;;
77226;SDS011;66234;47.642;19.144;2023-02-25T17:26:16;2.33;;;1.40;;
77226;SDS011;66234;47.642;19.144;2023-02-25T17:29:20;6.03;;;1.65;;
77226;SDS011;66234;47.642;19.144;2023-02-25T17:32:24;6.50;;;3.13;;
77226;SDS011;66234;47.642;19.144;2023-02-25T17:35:29;7.20;;;3.50;;
77226;SDS011;66234;47.642;19.144;2023-02-25T17:38:32;4.78;;;1.55;;
77226;SDS011;66234;47.642;19.144;2023-02-25T17:41:39;4.30;;;1.10;;
77226;SDS011;66234;47.642;19.144;2023-02-25T17:44:43;6.97;;;1.40;;
77226;SDS011;66234;47.642;19.144;2023-02-25T17:47:49;4.05;;;1.45;;
77226;SDS011;66234;47.642;19.144;2023-02-25T17:50:57;3.33;;;1.23;;
77226;SDS011;66234;47.642;19.144;2023-02-25T17:54:23;2.53;;;0.70;;
77226;SDS011;66234;47.642;19.144;2023-02-25T17:57:28;3.10;;;1.30;;
77226;SDS011;66234;47.642;19.144;2023-02-25T18:00:34;3.38;;;1.00;;
77226;SDS011;66234;47.642;19.144;2023-02-25T18:03:41;4.88;;;1.10;;
77226;SDS011;66234;47.642;19.144;2023-02-25T18:06:46;1.73;;;0.70;;
77226;SDS011;66234;47.642;19.144;2023-02-25T18:09:49;2.00;;;1.10;;
77226;SDS011;66234;47.642;19.144;2023-02-25T18:12:54;1.97;;;1.10;;
77226;SDS011;66234;47.642;19.144;2023-02-25T18:16:58;2.70;;;0.90;;
77226;SDS011;66234;47.642;19.144;2023-02-25T18:19:40;1.98;;;0.82;;
77226;SDS011;66234;47.642;19.144;2023-02-25T18:22:47;1.80;;;0.70;;
77226;SDS011;66234;47.642;19.144;2023-02-25T18:29:19;1.90;;;0.50;;
77226;SDS011;66234;47.642;19.144;2023-02-25T18:32:22;1.30;;;0.52;;
77226;SDS011;66234;47.642;19.144;2023-02-25T18:35:26;4.85;;;1.20;;
77226;SDS011;66234;47.642;19.144;2023-02-25T18:38:31;1.10;;;0.50;;
77226;SDS011;66234;47.642;19.144;2023-02-25T18:41:34;2.20;;;0.70;;
77226;SDS011;66234;47.642;19.144;2023-02-25T18:44:37;4.83;;;2.87;;
77226;SDS011;66234;47.642;19.144;2023-02-25T18:47:40;14.40;;;7.40;;
77226;SDS011;66234;47.642;19.144;2023-02-25T18:50:43;5.07;;;1.80;;
77226;SDS011;66234;47.642;19.144;2023-02-25T18:53:46;3.20;;;1.50;;
77226;SDS011;66234;47.642;19.144;2023-02-25T18:56:48;4.95;;;2.28;;
77226;SDS011;66234;47.642;19.144;2023-02-25T18:59:51;3.73;;;1.83;;
77226;SDS011;66234;47.642;19.144;2023-02-25T19:02:56;3.58;;;1.70;;
77226;SDS011;66234;47.642;19.144;2023-02-25T19:06:01;2.92;;;1.50;;
77226;SDS011;66234;47.642;19.144;2023-02-25T19:09:05;5.53;;;2.08;;
77226;SDS011;66234;47.642;19.144;2023-02-25T19:12:10;7.25;;;2.35;;
77226;SDS011;66234;47.642;19.144;2023-02-25T19:15:15;3.60;;;1.30;;
77226;SDS011;66234;47.642;19.144;2023-02-25T19:18:23;4.97;;;1.45;;
77226;SDS011;66234;47.642;19.144;2023-02-25T19:21:25;2.83;;;1.42;;
77226;SDS011;66234;47.642;19.144;2023-02-25T19:24:29;6.15;;;1.95;;
77226;SDS011;66234;47.642;19.144;2023-02-25T19:27:31;8.82;;;2.40;;
77226;SDS011;66234;47.642;19.144;2023-02-25T19:30:36;6.03;;;2.83;;
77226;SDS011;66234;47.642;19.144;2023-02-25T19:33:41;4.60;;;2.05;;
77226;SDS011;66234;47.642;19.144;2023-02-25T19:36:44;3.20;;;1.70;;
77226;SDS011;66234;47.642;19.144;2023-02-25T19:39:46;3.28;;;1.65;;
77226;SDS011;66234;47.642;19.144;2023-02-25T19:42:49;3.35;;;1.58;;
77226;SDS011;66234;47.642;19.144;2023-02-25T19:45:53;3.03;;;1.50;;
77226;SDS011;66234;47.642;19.144;2023-02-25T19:48:56;4.63;;;1.90;;
77226;SDS011;66234;47.642;19.144;2023-02-25T19:51:59;3.88;;;1.88;;
77226;SDS011;66234;47.642;19.144;2023-02-25T19:55:02;4.55;;;1.63;;
77226;SDS011;66234;47.642;19.144;2023-02-25T19:58:06;3.85;;;2.38;;
77226;SDS011;66234;47.642;19.144;2023-02-25T20:01:08;5.10;;;2.17;;
77226;SDS011;66234;47.642;19.144;2023-02-25T20:04:12;4.38;;;2.08;;
77226;SDS011;66234;47.642;19.144;2023-02-25T20:07:15;7.32;;;2.78;;
77226;SDS011;66234;47.642;19.144;2023-02-25T20:10:19;3.60;;;2.20;;
77226;SDS011;66234;47.642;19.144;2023-02-25T20:13:23;5.22;;;2.40;;
77226;SDS011;66234;47.642;19.144;2023-02-25T20:16:26;6.07;;;2.47;;
77226;SDS011;66234;47.642;19.144;2023-02-25T20:19:29;4.88;;;2.33;;
77226;SDS011;66234;47.642;19.144;2023-02-25T20:22:34;6.43;;;2.80;;
77226;SDS011;66234;47.642;19.144;2023-02-25T20:25:38;6.18;;;2.88;;
77226;SDS011;66234;47.642;19.144;2023-02-25T20:28:44;5.47;;;2.67;;
77226;SDS011;66234;47.642;19.144;2023-02-25T20:31:47;5.33;;;2.80;;
77226;SDS011;66234;47.642;19.144;2023-02-25T20:34:51;6.05;;;2.33;;
77226;SDS011;66234;47.642;19.144;2023-02-25T20:41:14;4.40;;;2.08;;
77226;SDS011;66234;47.642;19.144;2023-02-25T20:44:19;3.75;;;1.83;;
77226;SDS011;66234;47.642;19.144;2023-02-25T20:47:24;3.67;;;1.77;;
77226;SDS011;66234;47.642;19.144;2023-02-25T20:50:28;2.30;;;1.55;;
77226;SDS011;66234;47.642;19.144;2023-02-25T20:53:32;3.33;;;1.25;;
77226;SDS011;66234;47.642;19.144;2023-02-25T20:56:34;3.45;;;1.60;;
77226;SDS011;66234;47.642;19.144;2023-02-25T20:59:39;3.05;;;1.42;;
77226;SDS011;66234;47.642;19.144;2023-02-25T21:02:42;3.27;;;1.10;;
77226;SDS011;66234;47.642;19.144;2023-02-25T21:05:44;2.33;;;1.20;;
77226;SDS011;66234;47.642;19.144;2023-02-25T21:08:47;2.72;;;1.38;;
77226;SDS011;66234;47.642;19.144;2023-02-25T21:11:50;2.38;;;1.00;;
77226;SDS011;66234;47.642;19.144;2023-02-25T21:14:54;3.17;;;1.30;;
77226;SDS011;66234;47.642;19.144;2023-02-25T21:17:56;1.80;;;0.90;;
77226;SDS011;66234;47.642;19.144;2023-02-25T21:21:00;2.05;;;1.00;;
77226;SDS011;66234;47.642;19.144;2023-02-25T21:24:06;2.42;;;0.85;;
77226;SDS011;66234;47.642;19.144;2023-02-25T21:27:11;3.05;;;0.82;;
77226;SDS011;66234;47.642;19.144;2023-02-25T21:30:14;1.02;;;0.70;;
77226;SDS011;66234;47.642;19.144;2023-02-25T21:33:18;2.03;;;0.80;;
77226;SDS011;66234;47.642;19.144;2023-02-25T21:36:21;3.83;;;1.00;;
77226;SDS011;66234;47.642;19.144;2023-02-25T21:39:25;2.10;;;1.35;;
77226;SDS011;66234;47.642;19.144;2023-02-25T21:42:27;2.38;;;1.02;;
77226;SDS011;66234;47.642;19.144;2023-02-25T21:45:31;5.97;;;1.77;;
77226;SDS011;66234;47.642;19.144;2023-02-25T21:48:34;2.77;;;1.30;;